sensor_id;sensor_type;location;lat;lon;timestamp;P1;durP1;ratioP1;P2;durP2;ratioP2
21505;SDS011;10914;48.886;9.394;2024-02-26T00:00:08;23.73;;;22.33;;
21505;SDS011;10914;48.886;9.394;2024-02-26T00:02:34;23.52;;;22.35;;
21505;SDS011;10914;48.886;9.394;2024-02-26T00:05:03;23.92;;;22.60;;
21505;SDS011;10914;48.886;9.394;2024-02-26T00:07:28;23.23;;;22.02;;
21505;SDS011;10914;48.886;9.394;2024-02-26T00:09:53;23.30;;;21.90;;
21505;SDS011;10914;48.886;9.394;2024-02-26T00:12:18;23.60;;;22.48;;
21505;SDS011;10914;48.886;9.394;2024-02-26T00:14:43;23.45;;;22.25;;
21505;SDS011;10914;48.886;9.394;2024-02-26T00:17:11;23.70;;;22.50;;
21505;SDS011;10914;48.886;9.394;2024-02-26T00:19:36;24.03;;;22.83;;
21505;SDS011;10914;48.886;9.394;2024-02-26T00:22:01;23.65;;;22.50;;
21505;SDS011;10914;48.886;9.394;2024-02-26T00:24:26;23.80;;;22.63;;
21505;SDS011;10914;48.886;9.394;2024-02-26T00:26:51;24.80;;;23.50;;
21505;SDS011;10914;48.886;9.394;2024-02-26T00:29:19;24.08;;;22.88;;
21505;SDS011;10914;48.886;9.394;2024-02-26T00:31:44;24.58;;;23.33;;
21505;SDS011;10914;48.886;9.394;2024-02-26T00:34:10;25.67;;;24.40;;
21505;SDS011;10914;48.886;9.394;2024-02-26T00:36:35;24.33;;;23.23;;
21505;SDS011;10914;48.886;9.394;2024-02-26T00:39:00;25.08;;;23.88;;
21505;SDS011;10914;48.886;9.394;2024-02-26T00:41:25;24.90;;;23.70;;
21505;SDS011;10914;48.886;9.394;2024-02-26T00:43:50;25.85;;;24.50;;
21505;SDS011;10914;48.886;9.394;2024-02-26T00:46:15;24.65;;;23.45;;
21505;SDS011;10914;48.886;9.394;2024-02-26T00:48:40;24.52;;;23.33;;
21505;SDS011;10914;48.886;9.394;2024-02-26T00:51:06;25.00;;;23.70;;
21505;SDS011;10914;48.886;9.394;2024-02-26T00:53:32;25.35;;;24.05;;
21505;SDS011;10914;48.886;9.394;2024-02-26T00:55:57;24.67;;;23.57;;
21505;SDS011;10914;48.886;9.394;2024-02-26T00:58:24;25.10;;;23.88;;
21505;SDS011;10914;48.886;9.394;2024-02-26T01:00:49;25.25;;;24.05;;
21505;SDS011;10914;48.886;9.394;2024-02-26T01:03:14;24.88;;;23.67;;
21505;SDS011;10914;48.886;9.394;2024-02-26T01:05:39;24.98;;;23.70;;
21505;SDS011;10914;48.886;9.394;2024-02-26T01:08:05;25.42;;;24.15;;
21505;SDS011;10914;48.886;9.394;2024-02-26T01:10:30;24.60;;;23.38;;
21505;SDS011;10914;48.886;9.394;2024-02-26T01:12:56;24.80;;;23.60;;
21505;SDS011;10914;48.886;9.394;2024-02-26T01:15:21;25.27;;;24.07;;
21505;SDS011;10914;48.886;9.394;2024-02-26T01:17:48;25.98;;;24.67;;
21505;SDS011;10914;48.886;9.394;2024-02-26T01:20:14;25.63;;;24.33;;
21505;SDS011;10914;48.886;9.394;2024-02-26T01:22:39;25.13;;;23.92;;
21505;SDS011;10914;48.886;9.394;2024-02-26T01:25:05;26.27;;;24.98;;
21505;SDS011;10914;48.886;9.394;2024-02-26T01:27:31;24.90;;;23.70;;
21505;SDS011;10914;48.886;9.394;2024-02-26T01:29:56;25.73;;;24.33;;
21505;SDS011;10914;48.886;9.394;2024-02-26T01:32:21;25.33;;;24.13;;
21505;SDS011;10914;48.886;9.394;2024-02-26T01:34:46;26.13;;;24.75;;
21505;SDS011;10914;48.886;9.394;2024-02-26T01:37:11;26.63;;;25.23;;
21505;SDS011;10914;48.886;9.394;2024-02-26T01:39:37;26.58;;;25.27;;
21505;SDS011;10914;48.886;9.394;2024-02-26T01:42:02;25.20;;;23.93;;
21505;SDS011;10914;48.886;9.394;2024-02-26T01:44:27;25.85;;;24.55;;
21505;SDS011;10914;48.886;9.394;2024-02-26T01:46:53;25.58;;;24.27;;
21505;SDS011;10914;48.886;9.394;2024-02-26T01:49:18;24.98;;;23.58;;
21505;SDS011;10914;48.886;9.394;2024-02-26T01:51:44;24.15;;;23.02;;
21505;SDS011;10914;48.886;9.394;2024-02-26T01:54:09;24.52;;;23.35;;
21505;SDS011;10914;48.886;9.394;2024-02-26T01:56:35;25.30;;;23.90;;
21505;SDS011;10914;48.886;9.394;2024-02-26T01:59:01;25.25;;;24.05;;
21505;SDS011;10914;48.886;9.394;2024-02-26T02:01:27;25.77;;;24.48;;
21505;SDS011;10914;48.886;9.394;2024-02-26T02:03:53;25.38;;;24.17;;
21505;SDS011;10914;48.886;9.394;2024-02-26T02:06:18;26.02;;;24.83;;
21505;SDS011;10914;48.886;9.394;2024-02-26T02:08:45;25.92;;;24.63;;
21505;SDS011;10914;48.886;9.394;2024-02-26T02:11:11;25.02;;;23.83;;
21505;SDS011;10914;48.886;9.394;2024-02-26T02:13:36;25.23;;;24.02;;
21505;SDS011;10914;48.886;9.394;2024-02-26T02:16:02;25.75;;;24.45;;
21505;SDS011;10914;48.886;9.394;2024-02-26T02:18:27;25.90;;;24.60;;
21505;SDS011;10914;48.886;9.394;2024-02-26T02:20:53;25.38;;;24.17;;
21505;SDS011;10914;48.886;9.394;2024-02-26T02:23:18;25.27;;;24.00;;
21505;SDS011;10914;48.886;9.394;2024-02-26T02:25:43;25.60;;;24.33;;
21505;SDS011;10914;48.886;9.394;2024-02-26T02:28:09;26.17;;;24.77;;
21505;SDS011;10914;48.886;9.394;2024-02-26T02:30:34;26.88;;;25.38;;
21505;SDS011;10914;48.886;9.394;2024-02-26T02:33:00;25.63;;;24.33;;
21505;SDS011;10914;48.886;9.394;2024-02-26T02:35:25;25.10;;;23.85;;
21505;SDS011;10914;48.886;9.394;2024-02-26T02:37:54;26.45;;;25.13;;
21505;SDS011;10914;48.886;9.394;2024-02-26T02:40:19;25.75;;;24.45;;
21505;SDS011;10914;48.886;9.394;2024-02-26T02:42:45;26.33;;;25.02;;
21505;SDS011;10914;48.886;9.394;2024-02-26T02:45:10;26.27;;;24.98;;
21505;SDS011;10914;48.886;9.394;2024-02-26T02:47:35;26.23;;;24.95;;
21505;SDS011;10914;48.886;9.394;2024-02-26T02:50:01;25.88;;;24.58;;
21505;SDS011;10914;48.886;9.394;2024-02-26T02:52:26;26.10;;;24.80;;
21505;SDS011;10914;48.886;9.394;2024-02-26T02:54:51;24.70;;;23.48;;
21505;SDS011;10914;48.886;9.394;2024-02-26T02:57:16;25.08;;;23.83;;
21505;SDS011;10914;48.886;9.394;2024-02-26T02:59:41;24.43;;;23.17;;
21505;SDS011;10914;48.886;9.394;2024-02-26T03:02:07;25.33;;;23.92;;
21505;SDS011;10914;48.886;9.394;2024-02-26T03:04:32;25.38;;;23.98;;
21505;SDS011;10914;48.886;9.394;2024-02-26T03:06:57;25.10;;;23.90;;
21505;SDS011;10914;48.886;9.394;2024-02-26T03:09:23;24.75;;;23.55;;
21505;SDS011;10914;48.886;9.394;2024-02-26T03:11:48;24.83;;;23.52;;
21505;SDS011;10914;48.886;9.394;2024-02-26T03:14:13;24.90;;;23.65;;
21505;SDS011;10914;48.886;9.394;2024-02-26T03:16:39;26.00;;;24.52;;
21505;SDS011;10914;48.886;9.394;2024-02-26T03:19:04;26.53;;;25.13;;
21505;SDS011;10914;48.886;9.394;2024-02-26T03:21:29;25.20;;;23.90;;
21505;SDS011;10914;48.886;9.394;2024-02-26T03:23:54;25.33;;;23.93;;
21505;SDS011;10914;48.886;9.394;2024-02-26T03:26:19;24.67;;;23.40;;
21505;SDS011;10914;48.886;9.394;2024-02-26T03:28:44;24.60;;;23.40;;
21505;SDS011;10914;48.886;9.394;2024-02-26T03:31:10;27.07;;;25.67;;
21505;SDS011;10914;48.886;9.394;2024-02-26T03:33:35;28.33;;;26.85;;
21505;SDS011;10914;48.886;9.394;2024-02-26T03:36:00;25.77;;;24.50;;
21505;SDS011;10914;48.886;9.394;2024-02-26T03:38:26;25.55;;;24.15;;
21505;SDS011;10914;48.886;9.394;2024-02-26T03:40:51;24.63;;;23.33;;
21505;SDS011;10914;48.886;9.394;2024-02-26T03:43:16;24.95;;;23.65;;
21505;SDS011;10914;48.886;9.394;2024-02-26T03:45:41;24.45;;;23.25;;
21505;SDS011;10914;48.886;9.394;2024-02-26T03:48:07;24.73;;;23.48;;
21505;SDS011;10914;48.886;9.394;2024-02-26T03:50:32;25.27;;;24.08;;
21505;SDS011;10914;48.886;9.394;2024-02-26T03:52:57;25.23;;;23.92;;
21505;SDS011;10914;48.886;9.394;2024-02-26T03:55:23;26.52;;;25.23;;
21505;SDS011;10914;48.886;9.394;2024-02-26T03:57:50;26.20;;;24.98;;
21505;SDS011;10914;48.886;9.394;2024-02-26T04:00:15;26.85;;;25.55;;
21505;SDS011;10914;48.886;9.394;2024-02-26T04:02:40;26.58;;;25.27;;
21505;SDS011;10914;48.886;9.394;2024-02-26T04:05:08;25.83;;;24.58;;
21505;SDS011;10914;48.886;9.394;2024-02-26T04:07:33;26.90;;;25.60;;
21505;SDS011;10914;48.886;9.394;2024-02-26T04:09:59;26.05;;;24.75;;
21505;SDS011;10914;48.886;9.394;2024-02-26T04:12:24;27.45;;;26.00;;
21505;SDS011;10914;48.886;9.394;2024-02-26T04:14:49;25.13;;;23.83;;
21505;SDS011;10914;48.886;9.394;2024-02-26T04:17:14;27.88;;;26.52;;
21505;SDS011;10914;48.886;9.394;2024-02-26T04:19:39;26.05;;;24.75;;
21505;SDS011;10914;48.886;9.394;2024-02-26T04:22:04;27.55;;;26.05;;
21505;SDS011;10914;48.886;9.394;2024-02-26T04:24:30;26.77;;;25.48;;
21505;SDS011;10914;48.886;9.394;2024-02-26T04:26:55;26.27;;;24.98;;
21505;SDS011;10914;48.886;9.394;2024-02-26T04:29:20;27.07;;;25.47;;
21505;SDS011;10914;48.886;9.394;2024-02-26T04:31:45;24.58;;;23.35;;
21505;SDS011;10914;48.886;9.394;2024-02-26T04:34:11;24.15;;;22.95;;
21505;SDS011;10914;48.886;9.394;2024-02-26T04:36:36;24.10;;;22.97;;
21505;SDS011;10914;48.886;9.394;2024-02-26T04:39:02;24.65;;;23.45;;
21505;SDS011;10914;48.886;9.394;2024-02-26T04:41:27;24.48;;;23.27;;
21505;SDS011;10914;48.886;9.394;2024-02-26T04:43:53;24.45;;;23.05;;
21505;SDS011;10914;48.886;9.394;2024-02-26T04:46:18;23.73;;;22.52;;
21505;SDS011;10914;48.886;9.394;2024-02-26T04:48:43;24.52;;;23.23;;
21505;SDS011;10914;48.886;9.394;2024-02-26T04:51:10;23.83;;;22.63;;
21505;SDS011;10914;48.886;9.394;2024-02-26T04:53:35;24.07;;;22.87;;
21505;SDS011;10914;48.886;9.394;2024-02-26T04:56:01;24.83;;;23.42;;
21505;SDS011;10914;48.886;9.394;2024-02-26T04:58:26;23.70;;;22.50;;
21505;SDS011;10914;48.886;9.394;2024-02-26T05:00:51;23.70;;;22.58;;
21505;SDS011;10914;48.886;9.394;2024-02-26T05:03:16;25.02;;;23.73;;
21505;SDS011;10914;48.886;9.394;2024-02-26T05:05:42;24.83;;;23.60;;
21505;SDS011;10914;48.886;9.394;2024-02-26T05:08:07;24.63;;;23.42;;
21505;SDS011;10914;48.886;9.394;2024-02-26T05:10:33;24.53;;;23.27;;
21505;SDS011;10914;48.886;9.394;2024-02-26T05:12:58;25.63;;;24.05;;
21505;SDS011;10914;48.886;9.394;2024-02-26T05:15:23;25.00;;;23.80;;
21505;SDS011;10914;48.886;9.394;2024-02-26T05:17:48;25.50;;;24.20;;
21505;SDS011;10914;48.886;9.394;2024-02-26T05:20:14;25.80;;;24.50;;
21505;SDS011;10914;48.886;9.394;2024-02-26T05:22:39;25.23;;;23.92;;
21505;SDS011;10914;48.886;9.394;2024-02-26T05:25:04;25.03;;;23.77;;
21505;SDS011;10914;48.886;9.394;2024-02-26T05:27:29;23.85;;;22.65;;
21505;SDS011;10914;48.886;9.394;2024-02-26T05:29:54;23.27;;;22.08;;
21505;SDS011;10914;48.886;9.394;2024-02-26T05:32:19;23.35;;;22.25;;
21505;SDS011;10914;48.886;9.394;2024-02-26T05:34:45;23.43;;;22.23;;
21505;SDS011;10914;48.886;9.394;2024-02-26T05:37:10;23.40;;;22.20;;
21505;SDS011;10914;48.886;9.394;2024-02-26T05:39:36;23.23;;;22.10;;
21505;SDS011;10914;48.886;9.394;2024-02-26T05:42:01;24.40;;;23.13;;
21505;SDS011;10914;48.886;9.394;2024-02-26T05:44:26;24.67;;;23.37;;
21505;SDS011;10914;48.886;9.394;2024-02-26T05:46:51;25.73;;;24.33;;
21505;SDS011;10914;48.886;9.394;2024-02-26T05:49:17;26.63;;;25.03;;
21505;SDS011;10914;48.886;9.394;2024-02-26T05:51:42;25.55;;;24.25;;
21505;SDS011;10914;48.886;9.394;2024-02-26T05:54:07;25.03;;;23.70;;
21505;SDS011;10914;48.886;9.394;2024-02-26T05:56:33;24.60;;;23.40;;
21505;SDS011;10914;48.886;9.394;2024-02-26T05:58:58;25.77;;;24.40;;
21505;SDS011;10914;48.886;9.394;2024-02-26T06:01:23;24.90;;;23.67;;
21505;SDS011;10914;48.886;9.394;2024-02-26T06:03:49;26.77;;;25.38;;
21505;SDS011;10914;48.886;9.394;2024-02-26T06:06:14;28.00;;;26.52;;
21505;SDS011;10914;48.886;9.394;2024-02-26T06:08:40;27.30;;;25.70;;
21505;SDS011;10914;48.886;9.394;2024-02-26T06:11:06;26.48;;;25.10;;
21505;SDS011;10914;48.886;9.394;2024-02-26T06:13:31;28.52;;;27.02;;
21505;SDS011;10914;48.886;9.394;2024-02-26T06:15:57;28.40;;;27.00;;
21505;SDS011;10914;48.886;9.394;2024-02-26T06:18:22;28.20;;;26.70;;
21505;SDS011;10914;48.886;9.394;2024-02-26T06:20:47;27.73;;;26.13;;
21505;SDS011;10914;48.886;9.394;2024-02-26T06:23:13;27.50;;;26.00;;
21505;SDS011;10914;48.886;9.394;2024-02-26T06:25:38;27.27;;;25.80;;
21505;SDS011;10914;48.886;9.394;2024-02-26T06:28:03;27.60;;;26.05;;
21505;SDS011;10914;48.886;9.394;2024-02-26T06:30:28;27.88;;;26.38;;
21505;SDS011;10914;48.886;9.394;2024-02-26T06:32:53;29.23;;;27.33;;
21505;SDS011;10914;48.886;9.394;2024-02-26T06:35:19;28.50;;;26.85;;
21505;SDS011;10914;48.886;9.394;2024-02-26T06:37:44;29.52;;;27.83;;
21505;SDS011;10914;48.886;9.394;2024-02-26T06:40:09;28.77;;;27.10;;
21505;SDS011;10914;48.886;9.394;2024-02-26T06:42:34;28.35;;;26.67;;
21505;SDS011;10914;48.886;9.394;2024-02-26T06:45:00;29.60;;;27.88;;
21505;SDS011;10914;48.886;9.394;2024-02-26T06:47:25;30.73;;;29.02;;
21505;SDS011;10914;48.886;9.394;2024-02-26T06:49:50;28.27;;;26.58;;
21505;SDS011;10914;48.886;9.394;2024-02-26T06:52:16;27.48;;;25.90;;
21505;SDS011;10914;48.886;9.394;2024-02-26T06:54:41;29.20;;;27.50;;
21505;SDS011;10914;48.886;9.394;2024-02-26T06:57:06;28.50;;;26.90;;
21505;SDS011;10914;48.886;9.394;2024-02-26T06:59:31;28.37;;;26.80;;
21505;SDS011;10914;48.886;9.394;2024-02-26T07:01:56;28.05;;;26.45;;
21505;SDS011;10914;48.886;9.394;2024-02-26T07:04:22;28.35;;;26.80;;
21505;SDS011;10914;48.886;9.394;2024-02-26T07:06:47;27.77;;;26.03;;
21505;SDS011;10914;48.886;9.394;2024-02-26T07:09:12;27.90;;;26.20;;
21505;SDS011;10914;48.886;9.394;2024-02-26T07:11:37;28.85;;;27.17;;
21505;SDS011;10914;48.886;9.394;2024-02-26T07:14:04;29.63;;;27.90;;
21505;SDS011;10914;48.886;9.394;2024-02-26T07:16:29;30.05;;;28.23;;
21505;SDS011;10914;48.886;9.394;2024-02-26T07:18:54;31.75;;;30.02;;
21505;SDS011;10914;48.886;9.394;2024-02-26T07:21:20;31.92;;;30.17;;
21505;SDS011;10914;48.886;9.394;2024-02-26T07:23:45;31.47;;;29.77;;
21505;SDS011;10914;48.886;9.394;2024-02-26T07:26:10;33.30;;;31.50;;
21505;SDS011;10914;48.886;9.394;2024-02-26T07:28:37;32.92;;;31.00;;
21505;SDS011;10914;48.886;9.394;2024-02-26T07:31:02;34.40;;;32.50;;
21505;SDS011;10914;48.886;9.394;2024-02-26T07:33:28;32.80;;;30.90;;
21505;SDS011;10914;48.886;9.394;2024-02-26T07:35:53;31.10;;;29.50;;
21505;SDS011;10914;48.886;9.394;2024-02-26T07:38:18;31.60;;;29.77;;
21505;SDS011;10914;48.886;9.394;2024-02-26T07:40:44;30.30;;;28.70;;
21505;SDS011;10914;48.886;9.394;2024-02-26T07:43:09;30.52;;;28.92;;
21505;SDS011;10914;48.886;9.394;2024-02-26T07:45:34;29.10;;;27.53;;
21505;SDS011;10914;48.886;9.394;2024-02-26T07:48:01;30.48;;;28.65;;
21505;SDS011;10914;48.886;9.394;2024-02-26T07:50:26;29.90;;;28.30;;
21505;SDS011;10914;48.886;9.394;2024-02-26T07:52:51;29.65;;;28.05;;
21505;SDS011;10914;48.886;9.394;2024-02-26T07:55:17;29.48;;;27.88;;
21505;SDS011;10914;48.886;9.394;2024-02-26T07:57:44;29.02;;;27.52;;
21505;SDS011;10914;48.886;9.394;2024-02-26T08:00:09;29.52;;;27.85;;
21505;SDS011;10914;48.886;9.394;2024-02-26T08:02:34;27.55;;;26.08;;
21505;SDS011;10914;48.886;9.394;2024-02-26T08:04:59;28.30;;;26.60;;
21505;SDS011;10914;48.886;9.394;2024-02-26T08:07:25;27.67;;;26.07;;
21505;SDS011;10914;48.886;9.394;2024-02-26T08:09:50;26.88;;;25.48;;
21505;SDS011;10914;48.886;9.394;2024-02-26T08:12:15;25.87;;;24.47;;
21505;SDS011;10914;48.886;9.394;2024-02-26T08:14:41;25.35;;;23.95;;
21505;SDS011;10914;48.886;9.394;2024-02-26T08:17:07;24.77;;;23.55;;
21505;SDS011;10914;48.886;9.394;2024-02-26T08:19:33;24.90;;;23.50;;
21505;SDS011;10914;48.886;9.394;2024-02-26T08:22:00;25.73;;;24.25;;
21505;SDS011;10914;48.886;9.394;2024-02-26T08:24:25;25.60;;;24.10;;
21505;SDS011;10914;48.886;9.394;2024-02-26T08:26:51;25.70;;;24.20;;
21505;SDS011;10914;48.886;9.394;2024-02-26T08:29:16;25.80;;;24.50;;
21505;SDS011;10914;48.886;9.394;2024-02-26T08:31:41;26.15;;;24.63;;
21505;SDS011;10914;48.886;9.394;2024-02-26T08:34:06;24.83;;;23.48;;
21505;SDS011;10914;48.886;9.394;2024-02-26T08:36:32;24.37;;;23.07;;
21505;SDS011;10914;48.886;9.394;2024-02-26T08:38:58;24.52;;;23.13;;
21505;SDS011;10914;48.886;9.394;2024-02-26T08:41:23;24.43;;;23.13;;
21505;SDS011;10914;48.886;9.394;2024-02-26T08:43:48;24.13;;;22.77;;
21505;SDS011;10914;48.886;9.394;2024-02-26T08:46:13;23.98;;;22.67;;
21505;SDS011;10914;48.886;9.394;2024-02-26T08:48:39;23.95;;;22.70;;
21505;SDS011;10914;48.886;9.394;2024-02-26T08:51:07;23.20;;;22.00;;
21505;SDS011;10914;48.886;9.394;2024-02-26T08:53:32;24.13;;;22.63;;
21505;SDS011;10914;48.886;9.394;2024-02-26T08:55:57;25.02;;;23.63;;
21505;SDS011;10914;48.886;9.394;2024-02-26T08:58:23;24.67;;;23.38;;
21505;SDS011;10914;48.886;9.394;2024-02-26T09:00:48;24.95;;;23.45;;
21505;SDS011;10914;48.886;9.394;2024-02-26T09:03:13;25.75;;;24.08;;
21505;SDS011;10914;48.886;9.394;2024-02-26T09:05:38;25.42;;;24.02;;
21505;SDS011;10914;48.886;9.394;2024-02-26T09:08:03;24.93;;;23.47;;
21505;SDS011;10914;48.886;9.394;2024-02-26T09:10:29;24.83;;;23.42;;
21505;SDS011;10914;48.886;9.394;2024-02-26T09:12:54;25.10;;;23.80;;
21505;SDS011;10914;48.886;9.394;2024-02-26T09:15:20;25.17;;;23.88;;
21505;SDS011;10914;48.886;9.394;2024-02-26T09:17:45;26.13;;;24.50;;
21505;SDS011;10914;48.886;9.394;2024-02-26T09:20:10;27.67;;;25.98;;
21505;SDS011;10914;48.886;9.394;2024-02-26T09:22:36;24.65;;;23.27;;
21505;SDS011;10914;48.886;9.394;2024-02-26T09:25:03;24.92;;;23.52;;
21505;SDS011;10914;48.886;9.394;2024-02-26T09:27:28;24.13;;;22.83;;
21505;SDS011;10914;48.886;9.394;2024-02-26T09:29:55;23.52;;;22.13;;
21505;SDS011;10914;48.886;9.394;2024-02-26T09:32:20;23.70;;;22.43;;
21505;SDS011;10914;48.886;9.394;2024-02-26T09:34:46;23.10;;;21.90;;
21505;SDS011;10914;48.886;9.394;2024-02-26T09:37:11;23.00;;;21.70;;
21505;SDS011;10914;48.886;9.394;2024-02-26T09:39:37;22.67;;;21.48;;
21505;SDS011;10914;48.886;9.394;2024-02-26T09:42:03;23.37;;;22.17;;
21505;SDS011;10914;48.886;9.394;2024-02-26T09:44:29;24.50;;;23.30;;
21505;SDS011;10914;48.886;9.394;2024-02-26T09:46:55;26.58;;;25.10;;
21505;SDS011;10914;48.886;9.394;2024-02-26T09:49:21;27.90;;;26.50;;
21505;SDS011;10914;48.886;9.394;2024-02-26T09:51:47;28.95;;;27.45;;
21505;SDS011;10914;48.886;9.394;2024-02-26T09:54:14;27.77;;;26.35;;
21505;SDS011;10914;48.886;9.394;2024-02-26T09:56:40;27.70;;;26.20;;
21505;SDS011;10914;48.886;9.394;2024-02-26T09:59:15;28.38;;;26.83;;
21505;SDS011;10914;48.886;9.394;2024-02-26T10:01:42;28.67;;;27.27;;
21505;SDS011;10914;48.886;9.394;2024-02-26T10:04:07;28.48;;;26.98;;
21505;SDS011;10914;48.886;9.394;2024-02-26T10:06:33;27.55;;;26.05;;
21505;SDS011;10914;48.886;9.394;2024-02-26T10:08:59;27.70;;;26.33;;
21505;SDS011;10914;48.886;9.394;2024-02-26T10:11:25;26.60;;;25.17;;
21505;SDS011;10914;48.886;9.394;2024-02-26T10:13:50;25.63;;;24.33;;
21505;SDS011;10914;48.886;9.394;2024-02-26T10:16:15;25.77;;;24.47;;
21505;SDS011;10914;48.886;9.394;2024-02-26T10:18:51;24.42;;;23.23;;
21505;SDS011;10914;48.886;9.394;2024-02-26T10:21:16;24.33;;;22.98;;
21505;SDS011;10914;48.886;9.394;2024-02-26T10:23:43;23.60;;;22.40;;
21505;SDS011;10914;48.886;9.394;2024-02-26T10:26:08;23.50;;;22.30;;
21505;SDS011;10914;48.886;9.394;2024-02-26T10:28:35;23.65;;;22.35;;
21505;SDS011;10914;48.886;9.394;2024-02-26T10:31:00;23.23;;;22.02;;
21505;SDS011;10914;48.886;9.394;2024-02-26T10:33:26;23.63;;;22.33;;
21505;SDS011;10914;48.886;9.394;2024-02-26T10:35:51;23.08;;;21.88;;
21505;SDS011;10914;48.886;9.394;2024-02-26T10:38:18;21.98;;;20.77;;
21505;SDS011;10914;48.886;9.394;2024-02-26T10:40:45;22.08;;;21.02;;
21505;SDS011;10914;48.886;9.394;2024-02-26T10:43:10;22.45;;;21.25;;
21505;SDS011;10914;48.886;9.394;2024-02-26T10:45:35;21.73;;;20.52;;
21505;SDS011;10914;48.886;9.394;2024-02-26T10:48:02;21.73;;;20.63;;
21505;SDS011;10914;48.886;9.394;2024-02-26T10:50:27;21.50;;;20.40;;
21505;SDS011;10914;48.886;9.394;2024-02-26T10:52:52;21.27;;;20.08;;
21505;SDS011;10914;48.886;9.394;2024-02-26T10:55:19;21.30;;;20.05;;
21505;SDS011;10914;48.886;9.394;2024-02-26T10:57:46;23.10;;;21.95;;
21505;SDS011;10914;48.886;9.394;2024-02-26T11:00:13;25.67;;;24.35;;
21505;SDS011;10914;48.886;9.394;2024-02-26T11:02:39;23.73;;;22.52;;
21505;SDS011;10914;48.886;9.394;2024-02-26T11:05:05;21.35;;;20.35;;
21505;SDS011;10914;48.886;9.394;2024-02-26T11:07:31;20.88;;;19.70;;
21505;SDS011;10914;48.886;9.394;2024-02-26T11:09:57;20.73;;;19.67;;
21505;SDS011;10914;48.886;9.394;2024-02-26T11:12:24;20.80;;;19.75;;
21505;SDS011;10914;48.886;9.394;2024-02-26T11:14:49;20.92;;;19.85;;
21505;SDS011;10914;48.886;9.394;2024-02-26T11:17:17;21.33;;;20.30;;
21505;SDS011;10914;48.886;9.394;2024-02-26T11:19:43;21.15;;;20.15;;
21505;SDS011;10914;48.886;9.394;2024-02-26T11:22:09;22.35;;;21.15;;
21505;SDS011;10914;48.886;9.394;2024-02-26T11:24:34;20.88;;;19.88;;
21505;SDS011;10914;48.886;9.394;2024-02-26T11:27:01;21.17;;;20.17;;
21505;SDS011;10914;48.886;9.394;2024-02-26T11:29:29;20.52;;;19.42;;
21505;SDS011;10914;48.886;9.394;2024-02-26T11:31:57;19.60;;;18.60;;
21505;SDS011;10914;48.886;9.394;2024-02-26T11:34:23;19.42;;;18.38;;
21505;SDS011;10914;48.886;9.394;2024-02-26T11:36:49;19.80;;;18.90;;
21505;SDS011;10914;48.886;9.394;2024-02-26T11:39:14;20.13;;;19.13;;
21505;SDS011;10914;48.886;9.394;2024-02-26T11:41:41;20.73;;;19.73;;
21505;SDS011;10914;48.886;9.394;2024-02-26T11:44:07;20.33;;;19.33;;
21505;SDS011;10914;48.886;9.394;2024-02-26T11:46:33;20.23;;;19.13;;
21505;SDS011;10914;48.886;9.394;2024-02-26T11:49:41;19.52;;;18.63;;
21505;SDS011;10914;48.886;9.394;2024-02-26T11:51:50;20.50;;;19.40;;
21505;SDS011;10914;48.886;9.394;2024-02-26T11:54:36;20.15;;;19.25;;
21505;SDS011;10914;48.886;9.394;2024-02-26T11:57:01;20.73;;;19.63;;
21505;SDS011;10914;48.886;9.394;2024-02-26T11:59:39;21.40;;;20.20;;
21505;SDS011;10914;48.886;9.394;2024-02-26T12:02:04;20.80;;;19.70;;
21505;SDS011;10914;48.886;9.394;2024-02-26T12:04:29;20.40;;;19.30;;
21505;SDS011;10914;48.886;9.394;2024-02-26T12:06:56;21.17;;;20.00;;
21505;SDS011;10914;48.886;9.394;2024-02-26T12:11:56;20.60;;;19.48;;
21505;SDS011;10914;48.886;9.394;2024-02-26T12:14:24;21.40;;;20.17;;
21505;SDS011;10914;48.886;9.394;2024-02-26T12:16:50;20.15;;;19.05;;
21505;SDS011;10914;48.886;9.394;2024-02-26T12:19:15;20.27;;;19.27;;
21505;SDS011;10914;48.886;9.394;2024-02-26T12:21:41;20.20;;;19.20;;
21505;SDS011;10914;48.886;9.394;2024-02-26T12:24:08;19.87;;;18.97;;
21505;SDS011;10914;48.886;9.394;2024-02-26T12:26:34;19.80;;;18.90;;
21505;SDS011;10914;48.886;9.394;2024-02-26T12:28:59;20.33;;;19.43;;
21505;SDS011;10914;48.886;9.394;2024-02-26T12:31:25;19.65;;;18.65;;
21505;SDS011;10914;48.886;9.394;2024-02-26T12:33:51;19.65;;;18.75;;
21505;SDS011;10914;48.886;9.394;2024-02-26T12:36:16;19.10;;;18.20;;
21505;SDS011;10914;48.886;9.394;2024-02-26T12:38:41;19.97;;;19.00;;
21505;SDS011;10914;48.886;9.394;2024-02-26T12:41:06;19.60;;;18.70;;
21505;SDS011;10914;48.886;9.394;2024-02-26T12:43:32;19.87;;;18.87;;
21505;SDS011;10914;48.886;9.394;2024-02-26T12:45:57;19.40;;;18.50;;
21505;SDS011;10914;48.886;9.394;2024-02-26T12:48:22;19.77;;;18.77;;
21505;SDS011;10914;48.886;9.394;2024-02-26T12:50:47;20.00;;;19.02;;
21505;SDS011;10914;48.886;9.394;2024-02-26T12:53:12;19.80;;;18.90;;
21505;SDS011;10914;48.886;9.394;2024-02-26T12:55:37;19.90;;;19.00;;
21505;SDS011;10914;48.886;9.394;2024-02-26T12:58:05;19.27;;;18.38;;
21505;SDS011;10914;48.886;9.394;2024-02-26T13:00:30;20.33;;;19.20;;
21505;SDS011;10914;48.886;9.394;2024-02-26T13:02:56;20.02;;;19.02;;
21505;SDS011;10914;48.886;9.394;2024-02-26T13:05:21;19.45;;;18.55;;
21505;SDS011;10914;48.886;9.394;2024-02-26T13:07:47;19.60;;;18.70;;
21505;SDS011;10914;48.886;9.394;2024-02-26T13:10:13;19.75;;;18.77;;
21505;SDS011;10914;48.886;9.394;2024-02-26T13:12:42;20.17;;;19.10;;
21505;SDS011;10914;48.886;9.394;2024-02-26T13:15:08;19.33;;;18.42;;
21505;SDS011;10914;48.886;9.394;2024-02-26T13:17:34;19.63;;;18.73;;
21505;SDS011;10914;48.886;9.394;2024-02-26T13:20:00;19.60;;;18.70;;
21505;SDS011;10914;48.886;9.394;2024-02-26T13:22:25;19.10;;;18.20;;
21505;SDS011;10914;48.886;9.394;2024-02-26T13:24:56;19.05;;;18.15;;
21505;SDS011;10914;48.886;9.394;2024-02-26T13:27:22;18.98;;;18.08;;
21505;SDS011;10914;48.886;9.394;2024-02-26T13:29:48;19.48;;;18.58;;
21505;SDS011;10914;48.886;9.394;2024-02-26T13:32:13;19.40;;;18.50;;
21505;SDS011;10914;48.886;9.394;2024-02-26T13:34:38;19.33;;;18.42;;
21505;SDS011;10914;48.886;9.394;2024-02-26T13:37:03;19.63;;;18.73;;
21505;SDS011;10914;48.886;9.394;2024-02-26T13:39:30;19.13;;;18.33;;
21505;SDS011;10914;48.886;9.394;2024-02-26T13:41:55;19.70;;;18.70;;
21505;SDS011;10914;48.886;9.394;2024-02-26T13:44:22;19.48;;;18.58;;
21505;SDS011;10914;48.886;9.394;2024-02-26T13:46:47;20.00;;;19.10;;
21505;SDS011;10914;48.886;9.394;2024-02-26T13:49:12;19.10;;;18.30;;
21505;SDS011;10914;48.886;9.394;2024-02-26T13:51:38;20.30;;;19.40;;
21505;SDS011;10914;48.886;9.394;2024-02-26T13:54:03;20.27;;;19.27;;
21505;SDS011;10914;48.886;9.394;2024-02-26T13:56:29;20.50;;;19.60;;
21505;SDS011;10914;48.886;9.394;2024-02-26T13:58:54;19.67;;;18.77;;
21505;SDS011;10914;48.886;9.394;2024-02-26T14:01:19;18.93;;;18.13;;
21505;SDS011;10914;48.886;9.394;2024-02-26T14:03:45;19.73;;;18.70;;
21505;SDS011;10914;48.886;9.394;2024-02-26T14:06:10;20.37;;;19.30;;
21505;SDS011;10914;48.886;9.394;2024-02-26T14:08:35;19.87;;;18.83;;
21505;SDS011;10914;48.886;9.394;2024-02-26T14:11:00;20.00;;;19.10;;
21505;SDS011;10914;48.886;9.394;2024-02-26T14:13:25;20.10;;;19.08;;